Time;durP1;ratioP1;P1;durP2;ratioP2;P2;SDS_P1;SDS_P2;PMS_P1;PMS_P2;Temp;Humidity;BMP_temperature;BMP_pressure;BME280_temperature;BME280_humidity;BME280_pressure;Samples;Min_cycle;Max_cycle;Signal;HPM_P1;HPM_P2
2023/01/20 00:01:38;;;;;;;13.85;9.95;;;6.40;38.60;;;;;;5035127;28;20181;-50
2023/01/20 00:04:04;;;;;;;14.60;11.10;;;6.40;38.50;;;;;;5035337;28;20182;-50
2023/01/20 00:06:30;;;;;;;14.77;9.63;;;6.40;38.70;;;;;;5035185;28;20741;-50
2023/01/20 00:08:59;;;;;;;14.07;10.50;;;6.40;38.70;;;;;;5035110;28;20500;-50
2023/01/20 00:11:25;;;;;;;15.35;10.95;;;6.40;38.70;;;;;;5034847;28;20452;-50
2023/01/20 00:13:56;;;;;;;12.95;10.07;;;6.40;38.60;;;;;;5034956;28;20673;-50
2023/01/20 00:16:23;;;;;;;13.85;10.85;;;6.50;38.70;;;;;;5034636;28;20205;-49
2023/01/20 00:18:48;;;;;;;14.88;9.52;;;6.50;38.90;;;;;;5034833;28;20541;-50
2023/01/20 00:21:17;;;;;;;13.87;9.03;;;6.50;39.40;;;;;;5035068;28;20189;-50
2023/01/20 00:23:44;;;;;;;13.38;9.52;;;6.50;39.10;;;;;;5033818;28;20417;-50
2023/01/20 00:26:15;;;;;;;12.57;10.10;;;6.40;39.20;;;;;;5034475;28;20656;-50
2023/01/20 00:28:41;;;;;;;12.10;8.70;;;6.40;39.40;;;;;;5034672;28;20649;-50
2023/01/20 00:31:30;;;;;;;12.77;9.90;;;6.40;39.40;;;;;;5034657;28;20573;-50
2023/01/20 00:33:59;;;;;;;15.75;9.48;;;6.50;39.40;;;;;;5031716;28;20182;-50
2023/01/20 00:36:26;;;;;;;15.70;10.82;;;6.50;39.40;;;;;;5034495;28;20170;-50
2023/01/20 00:38:52;;;;;;;14.38;10.20;;;6.50;39.30;;;;;;5034436;28;20304;-50
2023/01/20 00:41:18;;;;;;;14.37;9.90;;;6.50;39.50;;;;;;5034431;28;20232;-50
2023/01/20 00:43:44;;;;;;;15.43;11.32;;;6.50;39.50;;;;;;5034664;28;20408;-50
2023/01/20 00:46:10;;;;;;;12.70;9.82;;;6.50;39.50;;;;;;5034390;28;20182;-50
2023/01/20 00:48:36;;;;;;;13.60;10.18;;;6.50;39.50;;;;;;5034502;28;20231;-50
2023/01/20 00:51:03;;;;;;;12.25;9.77;;;6.50;39.50;;;;;;5034436;28;20566;-50
2023/01/20 00:53:29;;;;;;;15.05;10.68;;;6.50;39.50;;;;;;5034486;28;20178;-50
2023/01/20 00:55:55;;;;;;;17.48;11.52;;;6.60;39.50;;;;;;5033932;28;20663;-49
2023/01/20 00:58:20;;;;;;;14.90;9.70;;;6.60;39.50;;;;;;5034114;28;20170;-50
2023/01/20 01:00:47;;;;;;;11.83;9.90;;;6.60;39.50;;;;;;5033903;28;20206;-50
2023/01/20 01:03:13;;;;;;;13.93;10.38;;;6.60;39.50;;;;;;5034158;28;20986;-50
2023/01/20 01:05:39;;;;;;;13.70;10.02;;;6.60;39.60;;;;;;5034042;28;20182;-50
2023/01/20 01:08:05;;;;;;;15.00;10.53;;;6.60;39.60;;;;;;5033937;28;20178;-49
2023/01/20 01:10:31;;;;;;;13.00;9.77;;;6.60;39.60;;;;;;5034036;28;20210;-49
2023/01/20 01:12:59;;;;;;;18.60;13.03;;;6.60;40.20;;;;;;5033978;28;20404;-50
2023/01/20 01:15:25;;;;;;;11.73;10.40;;;6.60;40.60;;;;;;5033711;28;20424;-50
2023/01/20 01:17:51;;;;;;;15.57;10.82;;;6.50;40.50;;;;;;5033769;28;20170;-50
2023/01/20 01:20:17;;;;;;;14.23;11.00;;;6.50;40.40;;;;;;5033647;28;20182;-50
2023/01/20 01:22:43;;;;;;;16.70;11.70;;;6.50;40.40;;;;;;5033786;28;20177;-50
2023/01/20 01:25:09;;;;;;;16.77;11.27;;;6.50;40.40;;;;;;5033535;28;20170;-50
2023/01/20 01:27:35;;;;;;;14.87;10.53;;;6.50;40.70;;;;;;5033654;28;20170;-50
2023/01/20 01:30:01;;;;;;;18.48;10.90;;;6.50;40.60;;;;;;5033378;28;20417;-50
2023/01/20 01:32:27;;;;;;;19.08;12.07;;;6.50;40.60;;;;;;5033666;28;20251;-50
2023/01/20 01:34:52;;;;;;;16.00;11.40;;;6.50;40.80;;;;;;5033261;28;20576;-50
2023/01/20 01:37:18;;;;;;;12.10;10.80;;;6.50;40.60;;;;;;5033365;28;20409;-50
2023/01/20 01:39:44;;;;;;;17.40;11.87;;;6.60;40.60;;;;;;5033134;28;20325;-50
2023/01/20 01:42:11;;;;;;;15.63;11.93;;;6.60;40.60;;;;;;5033581;28;20177;-50
2023/01/20 01:44:58;;;;;;;14.63;11.52;;;6.60;40.60;;;;;;5033202;28;20256;-50
2023/01/20 01:47:24;;;;;;;13.90;11.00;;;6.60;40.60;;;;;;5033079;28;20178;-50
2023/01/20 01:49:51;;;;;;;17.50;10.85;;;6.60;40.60;;;;;;5033024;28;20703;-50
2023/01/20 01:52:19;;;;;;;19.65;12.25;;;6.60;40.50;;;;;;5032975;28;20601;-50
2023/01/20 01:54:47;;;;;;;13.23;11.43;;;6.60;40.50;;;;;;5032937;28;20174;-50
2023/01/20 01:57:14;;;;;;;14.55;10.38;;;6.60;40.50;;;;;;5032886;28;20178;-50
2023/01/20 01:59:40;;;;;;;17.08;12.10;;;6.60;40.50;;;;;;5032848;28;20696;-50
2023/01/20 02:02:05;;;;;;;15.32;11.25;;;6.70;40.70;;;;;;5033199;28;20190;-50
2023/01/20 02:04:32;;;;;;;14.60;10.33;;;6.60;40.60;;;;;;5032986;28;20327;-50
2023/01/20 02:07:03;;;;;;;21.15;12.65;;;6.60;40.80;;;;;;5032825;28;20723;-50
2023/01/20 02:09:30;;;;;;;16.45;11.57;;;6.60;40.80;;;;;;5032699;28;20206;-50
2023/01/20 02:12:02;;;;;;;12.98;11.40;;;6.60;40.70;;;;;;5032908;28;20263;-50
2023/01/20 02:14:36;;;;;;;16.75;11.73;;;6.60;41.00;;;;;;5032460;28;20677;-50
2023/01/20 02:17:09;;;;;;;15.20;11.23;;;6.60;40.90;;;;;;5032643;28;20541;-50
2023/01/20 02:20:19;;;;;;;20.35;11.55;;;6.60;40.90;;;;;;5032539;28;20216;-50
2023/01/20 02:23:13;;;;;;;17.63;12.10;;;6.60;40.90;;;;;;5032324;28;20694;-50
2023/01/20 02:26:04;;;;;;;15.52;11.60;;;6.60;41.00;;;;;;5032263;28;20178;-50
2023/01/20 02:29:09;;;;;;;15.68;10.93;;;6.60;41.00;;;;;;5032332;28;20268;-50
2023/01/20 02:31:59;;;;;;;16.95;10.82;;;6.60;40.90;;;;;;5032297;28;20205;-49
2023/01/20 02:34:37;;;;;;;15.80;11.07;;;6.60;41.00;;;;;;5032279;28;20189;-50
2023/01/20 02:37:14;;;;;;;16.80;11.52;;;6.60;41.00;;;;;;5032393;28;20185;-50
2023/01/20 02:40:13;;;;;;;13.43;10.95;;;6.60;41.10;;;;;;5032332;28;20233;-50
2023/01/20 02:42:49;;;;;;;18.77;11.10;;;6.60;41.10;;;;;;5032314;28;20638;-50
2023/01/20 02:45:48;;;;;;;14.40;10.73;;;6.60;41.20;;;;;;5031489;28;20193;-50
2023/01/20 02:48:20;;;;;;;20.77;10.80;;;6.60;41.20;;;;;;5032402;28;20202;-50
2023/01/20 02:50:58;;;;;;;15.73;11.25;;;6.60;41.40;;;;;;5032344;28;20206;-50
2023/01/20 02:53:28;;;;;;;14.43;11.38;;;6.60;41.40;;;;;;5032059;28;20224;-50
2023/01/20 02:55:54;;;;;;;15.23;11.80;;;6.60;41.50;;;;;;5031901;28;20626;-50
2023/01/20 02:58:32;;;;;;;18.23;12.15;;;6.60;41.40;;;;;;5032304;28;20174;-50
2023/01/20 03:01:04;;;;;;;14.13;10.00;;;6.70;41.50;;;;;;5032247;28;20202;-50
2023/01/20 03:03:34;;;;;;;14.48;10.68;;;6.60;41.40;;;;;;5032059;28;20170;-50
2023/01/20 03:06:05;;;;;;;15.90;10.60;;;6.60;41.40;;;;;;5031773;28;20186;-50
2023/01/20 03:08:32;;;;;;;18.00;12.40;;;6.70;41.60;;;;;;5032300;28;20196;-50
2023/01/20 03:11:03;;;;;;;16.50;11.38;;;6.70;41.60;;;;;;5031800;28;20705;-51
2023/01/20 03:13:44;;;;;;;14.52;10.80;;;6.70;42.10;;;;;;5031984;28;20169;-50
2023/01/20 03:16:14;;;;;;;13.80;11.23;;;6.70;41.50;;;;;;5031933;28;20296;-50
2023/01/20 03:18:40;;;;;;;18.02;12.20;;;6.60;41.50;;;;;;5031877;28;20511;-50
2023/01/20 03:21:08;;;;;;;17.30;11.23;;;6.60;41.60;;;;;;5032041;28;20251;-51
2023/01/20 03:23:39;;;;;;;16.63;11.65;;;6.50;41.90;;;;;;5031992;28;20415;-50
2023/01/20 03:26:08;;;;;;;15.13;11.88;;;6.50;41.90;;;;;;5031904;28;20166;-50
2023/01/20 03:28:34;;;;;;;18.52;12.27;;;6.60;42.10;;;;;;5031635;28;20177;-50
2023/01/20 03:31:05;;;;;;;18.30;11.70;;;6.50;42.20;;;;;;5031818;28;20565;-50
2023/01/20 03:33:31;;;;;;;16.77;13.05;;;6.50;42.30;;;;;;5031922;28;20889;-50
2023/01/20 03:35:57;;;;;;;14.40;11.55;;;6.50;42.40;;;;;;5031672;28;20186;-50
2023/01/20 03:38:23;;;;;;;16.97;11.10;;;6.50;42.50;;;;;;5031707;28;20688;-50
2023/01/20 03:41:13;;;;;;;16.43;11.37;;;6.50;42.60;;;;;;5031452;28;20510;-50
2023/01/20 03:44:11;;;;;;;18.50;11.88;;;6.50;42.50;;;;;;5031709;28;20159;-50
2023/01/20 03:46:51;;;;;;;17.42;12.07;;;6.50;42.40;;;;;;5031511;28;20681;-50
2023/01/20 03:49:22;;;;;;;17.23;11.57;;;6.50;42.60;;;;;;5031617;28;20573;-50
2023/01/20 03:51:56;;;;;;;19.10;12.98;;;6.50;42.70;;;;;;5031498;28;20201;-50
2023/01/20 03:54:26;;;;;;;21.50;13.15;;;6.50;42.60;;;;;;5031790;28;20174;-50
2023/01/20 03:57:07;;;;;;;16.73;11.48;;;6.50;42.70;;;;;;5032124;28;20181;-51
2023/01/20 03:59:36;;;;;;;16.02;12.20;;;6.50;42.70;;;;;;5035114;28;20200;-50
2023/01/20 04:02:06;;;;;;;15.25;11.27;;;6.50;42.80;;;;;;5035138;28;20561;-49
2023/01/20 04:04:34;;;;;;;15.65;11.95;;;6.50;42.80;;;;;;5035227;28;20239;-50
2023/01/20 04:07:02;;;;;;;15.85;10.75;;;6.50;42.70;;;;;;5035325;28;20261;-50
2023/01/20 04:09:34;;;;;;;21.38;10.95;;;6.50;42.60;;;;;;5035070;28;20204;-50
2023/01/20 04:12:00;;;;;;;19.98;12.82;;;6.50;42.80;;;;;;5035217;28;20222;-50
2023/01/20 04:14:25;;;;;;;16.83;12.20;;;6.50;42.80;;;;;;5034750;28;20605;-50
2023/01/20 04:16:54;;;;;;;16.37;11.77;;;6.50;42.90;;;;;;5034883;28;20500;-50
2023/01/20 04:19:20;;;;;;;17.25;10.75;;;6.50;43.00;;;;;;5034733;28;20774;-50
2023/01/20 04:21:58;;;;;;;17.30;10.83;;;6.50;43.00;;;;;;5034848;28;20261;-50
2023/01/20 04:24:41;;;;;;;15.25;11.77;;;6.50;43.00;;;;;;5034685;28;20415;-50
2023/01/20 04:27:06;;;;;;;16.35;11.10;;;6.50;43.20;;;;;;5049032;22;20189;-48
2023/01/20 04:29:32;;;;;;;19.80;12.37;;;6.40;43.20;;;;;;5034054;28;20629;-48
2023/01/20 04:32:02;;;;;;;24.30;12.23;;;6.40;43.50;;;;;;5034611;28;20454;-48
2023/01/20 04:34:28;;;;;;;17.80;11.45;;;6.40;43.70;;;;;;5034537;28;20166;-48
2023/01/20 04:36:54;;;;;;;23.77;11.65;;;6.30;44.10;;;;;;5034545;28;20170;-48
2023/01/20 04:39:20;;;;;;;21.40;11.73;;;6.30;44.10;;;;;;5034505;28;20176;-48
2023/01/20 04:41:48;;;;;;;20.97;12.60;;;6.20;44.10;;;;;;5034451;28;20177;-48
2023/01/20 04:44:14;;;;;;;20.80;12.18;;;6.30;44.20;;;;;;5034429;28;20807;-47
2023/01/20 04:46:40;;;;;;;23.33;12.43;;;6.30;44.30;;;;;;5034299;28;20235;-48
2023/01/20 04:49:05;;;;;;;20.70;13.27;;;6.20;44.30;;;;;;5034281;28;20197;-48
2023/01/20 04:51:32;;;;;;;24.67;13.90;;;6.30;44.40;;;;;;5034214;28;20251;-48
2023/01/20 04:53:58;;;;;;;22.25;13.40;;;6.30;44.20;;;;;;5034244;28;20522;-48
2023/01/20 04:56:24;;;;;;;18.38;12.60;;;6.30;44.10;;;;;;5033959;28;20174;-47
2023/01/20 04:58:50;;;;;;;19.50;13.20;;;6.30;44.10;;;;;;5034129;28;20527;-47
2023/01/20 05:01:16;;;;;;;19.00;13.40;;;6.30;44.10;;;;;;5034187;28;20405;-47
2023/01/20 05:03:41;;;;;;;26.30;13.73;;;6.30;43.90;;;;;;5034038;28;20511;-47
2023/01/20 05:06:10;;;;;;;20.40;14.17;;;6.30;43.90;;;;;;5033854;28;20279;-48
2023/01/20 05:08:35;;;;;;;16.63;12.23;;;6.30;43.80;;;;;;5033194;28;20194;-47
2023/01/20 05:11:02;;;;;;;21.80;12.90;;;6.40;43.80;;;;;;5032584;28;20213;-48
2023/01/20 05:13:28;;;;;;;17.02;12.25;;;6.30;43.90;;;;;;5033871;28;20170;-48
2023/01/20 05:15:54;;;;;;;19.52;13.50;;;6.30;43.90;;;;;;5033713;28;20568;-47
2023/01/20 05:18:20;;;;;;;18.65;11.40;;;6.30;44.00;;;;;;5033805;28;20689;-47
2023/01/20 05:20:47;;;;;;;19.43;12.37;;;6.30;44.00;;;;;;5033782;28;20257;-48
2023/01/20 05:23:13;;;;;;;18.92;13.15;;;6.30;43.90;;;;;;5033675;28;20174;-47
2023/01/20 05:25:39;;;;;;;18.35;13.27;;;6.30;44.00;;;;;;5033475;28;20178;-48
2023/01/20 05:28:05;;;;;;;16.20;12.63;;;6.30;43.90;;;;;;5033655;28;20206;-48
2023/01/20 05:30:31;;;;;;;18.00;13.03;;;6.30;44.10;;;;;;5033478;28;20181;-47
2023/01/20 05:32:57;;;;;;;16.17;11.23;;;6.30;44.10;;;;;;5033582;28;20810;-47
2023/01/20 05:35:22;;;;;;;17.60;11.60;;;6.30;44.20;;;;;;5033289;28;20163;-48
2023/01/20 05:37:53;;;;;;;17.00;12.27;;;6.30;44.10;;;;;;5033334;28;20197;-47
2023/01/20 05:40:19;;;;;;;19.15;12.35;;;6.30;43.90;;;;;;5033385;28;20166;-47
2023/01/20 05:42:45;;;;;;;19.70;13.20;;;6.30;43.90;;;;;;5033380;28;20174;-50
2023/01/20 05:45:10;;;;;;;17.50;12.30;;;6.40;43.90;;;;;;5033157;28;20177;-48
2023/01/20 05:47:58;;;;;;;19.15;12.90;;;6.40;44.10;;;;;;5010833;28;20344;-48
2023/01/20 05:50:25;;;;;;;16.77;12.65;;;6.30;44.30;;;;;;5033056;28;20181;-48
2023/01/20 05:52:51;;;;;;;19.58;13.07;;;6.30;44.40;;;;;;5033138;28;20208;-48
2023/01/20 05:55:17;;;;;;;20.30;12.63;;;6.30;44.30;;;;;;5032835;28;20598;-48
2023/01/20 05:57:43;;;;;;;19.13;12.73;;;6.30;44.40;;;;;;5032987;28;20216;-48
2023/01/20 06:00:10;;;;;;;18.67;12.80;;;6.30;44.50;;;;;;5033033;28;20182;-47
2023/01/20 06:02:35;;;;;;;17.85;11.82;;;6.30;44.30;;;;;;5033045;28;20409;-48
2023/01/20 06:05:01;;;;;;;19.40;13.93;;;6.40;44.30;;;;;;5032661;28;20185;-48
2023/01/20 06:07:30;;;;;;;16.83;10.70;;;6.30;44.30;;;;;;5032817;28;20278;-48
2023/01/20 06:09:56;;;;;;;18.45;11.38;;;6.30;44.30;;;;;;5032771;28;20540;-49
2023/01/20 06:12:26;;;;;;;18.50;12.70;;;6.40;45.10;;;;;;5032681;28;20200;-48
2023/01/20 06:14:51;;;;;;;14.52;10.82;;;6.40;44.40;;;;;;5032531;28;20170;-48
2023/01/20 06:17:17;;;;;;;19.27;12.13;;;6.40;44.30;;;;;;5032570;28;20580;-48
2023/01/20 06:19:43;;;;;;;16.60;11.47;;;6.40;44.20;;;;;;5032623;28;20170;-48
2023/01/20 06:22:13;;;;;;;19.83;12.90;;;6.40;44.40;;;;;;5031920;28;20166;-48
2023/01/20 06:24:39;;;;;;;21.08;13.43;;;6.40;44.20;;;;;;5032333;28;20161;-47
2023/01/20 06:27:05;;;;;;;22.87;13.10;;;6.40;44.20;;;;;;5032448;28;20205;-48
2023/01/20 06:29:31;;;;;;;18.70;12.97;;;6.40;44.40;;;;;;5032605;28;20414;-48
2023/01/20 06:31:56;;;;;;;23.07;13.30;;;6.40;44.40;;;;;;5032354;28;20272;-48
2023/01/20 06:34:22;;;;;;;24.50;15.43;;;6.40;44.30;;;;;;5032162;28;20162;-48
2023/01/20 06:36:48;;;;;;;26.07;11.93;;;6.40;44.10;;;;;;5032306;28;20672;-47
2023/01/20 06:39:14;;;;;;;22.37;13.33;;;6.50;44.20;;;;;;5032264;28;20173;-50
2023/01/20 06:41:39;;;;;;;22.20;13.77;;;6.50;44.10;;;;;;5032288;28;20166;-48
2023/01/20 06:44:05;;;;;;;30.97;13.83;;;6.50;44.10;;;;;;5032238;28;20416;-49
2023/01/20 06:46:31;;;;;;;17.50;11.43;;;6.50;44.00;;;;;;5031897;28;20253;-48
2023/01/20 06:48:59;;;;;;;22.57;12.33;;;6.50;44.10;;;;;;5032113;28;20243;-48
2023/01/20 06:51:26;;;;;;;18.45;12.13;;;6.40;44.20;;;;;;5032075;28;20672;-48
2023/01/20 06:53:53;;;;;;;22.08;13.23;;;6.40;44.10;;;;;;5031999;28;20174;-50
2023/01/20 06:56:20;;;;;;;19.50;12.95;;;6.40;44.10;;;;;;5031906;28;20169;-50
2023/01/20 06:58:45;;;;;;;22.63;13.77;;;6.40;44.40;;;;;;5032058;28;20657;-49
2023/01/20 07:01:26;;;;;;;23.33;15.23;;;6.40;44.20;;;;;;5031860;28;20236;-50
2023/01/20 07:03:52;;;;;;;21.55;13.43;;;6.50;44.20;;;;;;5032052;28;20927;-50
2023/01/20 07:06:24;;;;;;;20.05;13.77;;;6.50;44.30;;;;;;5031884;28;20245;-49
2023/01/20 07:08:50;;;;;;;19.83;14.00;;;6.50;44.10;;;;;;5031908;28;20189;-50
2023/01/20 07:11:16;;;;;;;21.92;14.52;;;6.50;44.10;;;;;;5031918;28;20251;-49
2023/01/20 07:13:42;;;;;;;19.37;13.07;;;6.50;44.10;;;;;;5031872;28;20752;-50
2023/01/20 07:16:08;;;;;;;24.60;15.57;;;6.50;44.20;;;;;;5030435;28;20277;-50
2023/01/20 07:18:34;;;;;;;23.92;14.18;;;6.50;44.10;;;;;;5031866;28;20190;-50
2023/01/20 07:21:01;;;;;;;20.00;15.30;;;6.50;44.30;;;;;;5031902;28;20241;-50
2023/01/20 07:23:27;;;;;;;21.40;15.45;;;6.50;44.20;;;;;;5031862;28;20166;-50
2023/01/20 07:26:02;;;;;;;20.05;14.10;;;6.50;44.10;;;;;;5031606;28;20698;-50
2023/01/20 07:28:30;;;;;;;25.27;14.90;;;6.50;44.10;;;;;;5031623;28;20213;-49
2023/01/20 07:31:05;;;;;;;20.98;14.15;;;6.50;44.40;;;;;;5031829;28;20251;-50
2023/01/20 07:33:31;;;;;;;20.92;14.32;;;6.50;44.30;;;;;;5035098;28;20158;-50
2023/01/20 07:35:58;;;;;;;24.15;14.13;;;6.50;44.40;;;;;;5035523;28;20170;-50
2023/01/20 07:38:24;;;;;;;21.23;13.68;;;6.40;44.30;;;;;;5035441;28;20185;-49
2023/01/20 07:40:49;;;;;;;23.90;14.80;;;6.40;44.30;;;;;;5035562;28;20531;-49
2023/01/20 07:43:15;;;;;;;20.90;14.70;;;6.50;44.40;;;;;;5035448;28;20407;-49
2023/01/20 07:45:41;;;;;;;17.50;12.67;;;6.40;44.50;;;;;;5035500;28;20533;-50
2023/01/20 07:48:07;;;;;;;19.77;13.37;;;6.40;44.50;;;;;;5035492;28;20507;-54
2023/01/20 07:50:34;;;;;;;24.00;16.30;;;6.40;44.50;;;;;;5035609;28;20431;-49
2023/01/20 07:53:00;;;;;;;23.38;14.82;;;6.40;44.70;;;;;;5035531;28;20408;-49
2023/01/20 07:55:26;;;;;;;26.17;15.50;;;6.50;44.60;;;;;;5035119;28;20166;-50
2023/01/20 07:57:51;;;;;;;19.73;14.80;;;6.40;44.50;;;;;;5035247;28;20292;-50
2023/01/20 08:00:18;;;;;;;22.63;15.13;;;6.50;44.60;;;;;;5035275;28;20409;-49
2023/01/20 08:02:44;;;;;;;17.95;14.73;;;6.50;44.70;;;;;;5035224;28;20466;-49
2023/01/20 08:05:10;;;;;;;23.20;15.00;;;6.50;44.70;;;;;;5034987;28;20169;-50
2023/01/20 08:07:36;;;;;;;25.80;15.18;;;6.50;44.60;;;;;;5034985;28;20186;-50
2023/01/20 08:10:02;;;;;;;25.77;15.40;;;6.50;44.60;;;;;;5035151;28;20217;-50
2023/01/20 08:12:29;;;;;;;29.75;15.60;;;6.50;44.60;;;;;;5035025;28;20335;-49
2023/01/20 08:14:55;;;;;;;25.00;15.75;;;6.50;44.60;;;;;;5034811;28;20170;-49
2023/01/20 08:17:21;;;;;;;20.05;13.68;;;6.50;44.60;;;;;;5034895;28;20204;-49
2023/01/20 08:19:47;;;;;;;26.63;14.80;;;6.60;44.60;;;;;;5034955;28;20170;-49
2023/01/20 08:22:12;;;;;;;26.73;15.90;;;6.60;44.60;;;;;;5034775;28;20185;-49
2023/01/20 08:24:38;;;;;;;22.90;16.17;;;6.60;44.70;;;;;;5034602;28;20177;-49
2023/01/20 08:27:04;;;;;;;24.33;15.37;;;6.60;44.70;;;;;;5034811;28;20272;-49
2023/01/20 08:29:30;;;;;;;27.53;14.60;;;6.60;44.70;;;;;;5034806;28;20189;-50
2023/01/20 08:31:59;;;;;;;22.88;15.63;;;6.60;44.60;;;;;;5034739;28;20221;-50
2023/01/20 08:34:25;;;;;;;26.45;16.33;;;6.60;44.60;;;;;;5034391;28;20198;-50
2023/01/20 08:36:52;;;;;;;27.33;16.63;;;6.70;44.80;;;;;;5034435;28;20165;-50
2023/01/20 08:39:19;;;;;;;24.65;15.02;;;6.70;44.70;;;;;;5034562;28;20174;-50
2023/01/20 08:41:46;;;;;;;21.85;14.75;;;6.60;44.60;;;;;;5034569;28;20252;-50
2023/01/20 08:44:13;;;;;;;29.10;16.30;;;6.60;44.60;;;;;;5033307;28;20201;-49
2023/01/20 08:46:39;;;;;;;28.20;17.10;;;6.60;44.60;;;;;;5034364;28;20166;-50
2023/01/20 08:49:11;;;;;;;24.88;14.88;;;6.60;44.80;;;;;;5034284;28;20200;-50
2023/01/20 08:51:37;;;;;;;29.75;16.42;;;6.60;44.90;;;;;;5034175;28;20683;-50
2023/01/20 08:54:03;;;;;;;24.85;13.77;;;6.60;44.90;;;;;;5034185;28;20561;-50
2023/01/20 08:56:29;;;;;;;25.20;14.20;;;6.60;44.80;;;;;;5034083;28;20158;-49
2023/01/20 08:58:57;;;;;;;21.60;14.40;;;6.60;44.80;;;;;;5034148;28;20472;-50
2023/01/20 09:01:25;;;;;;;23.75;14.30;;;6.70;44.90;;;;;;5034138;28;20178;-50
2023/01/20 09:03:51;;;;;;;24.73;15.77;;;6.70;44.90;;;;;;5034067;28;20665;-50
2023/01/20 09:06:18;;;;;;;20.92;13.45;;;6.70;44.90;;;;;;5033686;28;20533;-50
2023/01/20 09:08:45;;;;;;;26.40;15.00;;;6.70;44.90;;;;;;5033935;28;20750;-50
2023/01/20 09:11:19;;;;;;;26.10;16.85;;;6.70;44.80;;;;;;5033886;28;20198;-50
2023/01/20 09:13:45;;;;;;;33.53;16.48;;;6.80;44.90;;;;;;5033892;28;20243;-50
2023/01/20 09:16:15;;;;;;;25.88;15.95;;;6.70;44.80;;;;;;5033656;28;20170;-50
2023/01/20 09:18:41;;;;;;;23.83;15.63;;;6.70;44.70;;;;;;5033659;28;20278;-50
2023/01/20 09:21:08;;;;;;;24.42;17.52;;;6.80;44.80;;;;;;5033690;28;20200;-49
2023/01/20 09:23:36;;;;;;;23.48;16.08;;;6.80;44.90;;;;;;5033753;28;20637;-50
2023/01/20 09:26:05;;;;;;;20.83;14.43;;;6.70;44.70;;;;;;5033511;28;20196;-50
2023/01/20 09:28:31;;;;;;;32.08;17.27;;;6.70;44.80;;;;;;5033409;28;20202;-49
2023/01/20 09:31:00;;;;;;;24.60;15.68;;;6.80;44.70;;;;;;5033518;28;20277;-49
2023/01/20 09:33:26;;;;;;;23.38;15.57;;;6.80;44.80;;;;;;5032274;28;20569;-50
2023/01/20 09:35:58;;;;;;;27.02;15.05;;;6.80;44.60;;;;;;5033226;28;20184;-50
2023/01/20 09:44:16;;;;;;;24.42;16.42;;;6.80;44.60;;;;;;5033612;28;20220;-50
2023/01/20 09:47:18;;;;;;;26.25;16.30;;;6.80;44.60;;;;;;5033246;28;20701;-50
2023/01/20 09:55:37;;;;;;;25.00;15.45;;;6.90;44.70;;;;;;5033047;28;20521;-49
2023/01/20 09:58:10;;;;;;;23.17;16.40;;;6.90;44.70;;;;;;5032952;28;20669;-50
2023/01/20 10:00:39;;;;;;;22.83;15.30;;;6.90;44.70;;;;;;5032924;28;20253;-51
2023/01/20 10:03:19;;;;;;;25.55;15.60;;;7.00;44.70;;;;;;5032950;28;20173;-49
2023/01/20 10:05:48;;;;;;;21.50;14.90;;;7.00;44.60;;;;;;5032726;28;20158;-50
2023/01/20 10:08:32;;;;;;;24.38;16.25;;;7.00;44.50;;;;;;5032766;28;20186;-50
2023/01/20 10:11:10;;;;;;;25.52;16.88;;;7.00;44.50;;;;;;5032788;28;20225;-50
2023/01/20 10:13:46;;;;;;;25.10;17.17;;;7.00;44.60;;;;;;5032834;28;20711;-50
2023/01/20 10:16:21;;;;;;;22.13;17.02;;;7.00;44.60;;;;;;5032541;28;20173;-49
2023/01/20 10:18:54;;;;;;;32.83;18.50;;;7.00;44.60;;;;;;5031250;28;20197;-50
2023/01/20 10:21:30;;;;;;;34.53;17.55;;;7.00;44.50;;;;;;5032619;28;20269;-49
2023/01/20 10:24:23;;;;;;;26.02;16.48;;;7.00;44.50;;;;;;5032579;28;20166;-49
2023/01/20 10:27:00;;;;;;;28.92;16.52;;;7.00;44.50;;;;;;5032536;28;20162;-50
2023/01/20 10:29:35;;;;;;;26.33;16.05;;;7.00;44.60;;;;;;5031186;28;20208;-51
2023/01/20 10:32:05;;;;;;;27.25;15.98;;;7.00;44.60;;;;;;5032477;28;20268;-50
2023/01/20 10:34:44;;;;;;;35.58;16.83;;;7.00;44.80;;;;;;5032240;28;20669;-50
2023/01/20 10:37:11;;;;;;;28.05;18.77;;;7.00;44.70;;;;;;5032368;28;20217;-50
2023/01/20 10:39:48;;;;;;;31.70;15.90;;;7.00;44.60;;;;;;5032337;28;20277;-50
2023/01/20 10:42:16;;;;;;;26.95;16.50;;;7.00;44.70;;;;;;5032312;28;20597;-50
2023/01/20 10:44:43;;;;;;;34.03;17.00;;;6.90;44.70;;;;;;5032017;28;20185;-50
2023/01/20 10:47:42;;;;;;;24.60;17.17;;;7.00;44.80;;;;;;5032144;28;20193;-50
2023/01/20 10:50:37;;;;;;;26.02;16.05;;;7.00;44.70;;;;;;5032209;28;20216;-50
2023/01/20 10:53:34;;;;;;;34.38;18.30;;;7.00;44.70;;;;;;5031638;28;20201;-50
2023/01/20 10:56:15;;;;;;;26.88;17.13;;;7.10;44.90;;;;;;5031913;28;20177;-50
2023/01/20 10:58:44;;;;;;;31.95;18.77;;;7.10;44.80;;;;;;5031952;28;20327;-50
2023/01/20 11:01:13;;;;;;;25.77;17.30;;;7.10;44.90;;;;;;5032105;28;20174;-50
2023/01/20 11:03:42;;;;;;;26.95;17.27;;;7.10;44.60;;;;;;5031935;28;20173;-49
2023/01/20 11:06:16;;;;;;;32.75;17.33;;;7.10;44.40;;;;;;5031596;28;20176;-50
2023/01/20 11:08:42;;;;;;;26.65;17.45;;;7.10;45.10;;;;;;5031696;28;20268;-49
2023/01/20 11:11:20;;;;;;;29.63;17.00;;;7.10;44.40;;;;;;5031847;28;20649;-49
2023/01/20 11:13:46;;;;;;;28.13;16.83;;;7.10;44.30;;;;;;5031937;28;20645;-49
2023/01/20 11:16:24;;;;;;;24.57;16.13;;;7.10;44.20;;;;;;5031673;28;20177;-50
2023/01/20 11:19:04;;;;;;;27.17;17.73;;;7.10;44.20;;;;;;5031860;28;20428;-50
2023/01/20 11:21:34;;;;;;;34.60;20.80;;;7.10;44.30;;;;;;5031847;28;20510;-49
2023/01/20 11:24:00;;;;;;;32.28;18.10;;;7.10;44.10;;;;;;5031842;28;20671;-50
2023/01/20 11:26:35;;;;;;;31.88;19.23;;;7.10;44.20;;;;;;5031504;28;20178;-49
2023/01/20 11:29:10;;;;;;;27.83;17.73;;;7.10;44.10;;;;;;5031693;28;20228;-50
2023/01/20 11:31:40;;;;;;;30.45;17.23;;;7.10;44.10;;;;;;5031659;28;20198;-49
2023/01/20 11:34:28;;;;;;;22.80;15.77;;;7.10;44.10;;;;;;5031633;28;20170;-50
2023/01/20 11:37:06;;;;;;;26.13;17.15;;;7.10;44.00;;;;;;5031731;28;20320;-50
2023/01/20 11:39:56;;;;;;;31.77;18.48;;;7.10;43.90;;;;;;5031638;28;20529;-50
2023/01/20 11:42:41;;;;;;;26.58;17.30;;;7.10;44.10;;;;;;5029714;28;20209;-50
2023/01/20 11:45:29;;;;;;;31.27;19.50;;;7.20;44.10;;;;;;5031533;28;20146;-50
2023/01/20 11:48:03;;;;;;;34.03;18.25;;;7.20;44.00;;;;;;5031551;28;20194;-50
2023/01/20 11:50:39;;;;;;;31.42;17.88;;;7.20;43.90;;;;;;5031526;28;20166;-51
2023/01/20 11:53:17;;;;;;;33.45;20.48;;;7.20;44.00;;;;;;5031579;28;20178;-50
2023/01/20 11:55:51;;;;;;;26.00;16.55;;;7.20;43.90;;;;;;5031406;28;20158;-51
2023/01/20 11:58:20;;;;;;;28.80;18.75;;;7.20;44.00;;;;;;5031648;28;20217;-50
2023/01/20 12:00:48;;;;;;;29.98;18.33;;;7.20;44.10;;;;;;5031479;28;20158;-51
2023/01/20 12:03:34;;;;;;;32.58;18.05;;;7.20;44.10;;;;;;5031519;28;20174;-50
2023/01/20 12:06:22;;;;;;;31.70;17.85;;;7.30;44.10;;;;;;5031265;28;20233;-50
2023/01/20 12:09:27;;;;;;;34.85;19.60;;;7.30;44.00;;;;;;5031422;28;20189;-50
2023/01/20 12:12:01;;;;;;;34.22;19.20;;;7.30;43.90;;;;;;5028909;28;20233;-50
2023/01/20 12:14:31;;;;;;;29.98;18.40;;;7.30;44.00;;;;;;5031001;28;20185;-50
2023/01/20 12:17:16;;;;;;;32.53;18.48;;;7.30;43.90;;;;;;5031345;28;20324;-49
2023/01/20 12:20:04;;;;;;;33.38;19.48;;;7.30;43.80;;;;;;5033089;28;20201;-51
2023/01/20 12:23:07;;;;;;;39.25;19.77;;;7.30;43.70;;;;;;5034907;28;20236;-50
2023/01/20 12:25:45;;;;;;;33.05;18.10;;;6.10;43.20;;;;;;5034513;28;20184;-50
2023/01/20 12:28:25;;;;;;;36.60;19.90;;;7.30;43.70;;;;;;5034567;28;20248;-50
2023/01/20 12:30:59;;;;;;;35.97;21.15;;;7.20;43.50;;;;;;5034555;28;20154;-51
2023/01/20 12:33:36;;;;;;;39.13;20.00;;;7.20;43.70;;;;;;5034712;28;20245;-49
2023/01/20 12:36:07;;;;;;;33.15;19.25;;;7.20;43.90;;;;;;5034412;28;20713;-50
2023/01/20 12:38:49;;;;;;;35.00;19.00;;;7.20;43.90;;;;;;5034489;28;20657;-50
2023/01/20 12:41:28;;;;;;;32.20;18.63;;;7.30;43.90;;;;;;5034532;28;20467;-50
2023/01/20 12:44:17;;;;;;;29.20;18.25;;;7.30;43.70;;;;;;5034459;28;20173;-50
2023/01/20 12:46:58;;;;;;;37.13;19.05;;;7.20;43.70;;;;;;5034653;28;20162;-50
2023/01/20 12:49:30;;;;;;;35.83;21.77;;;7.20;43.60;;;;;;5034331;28;20174;-50
2023/01/20 12:52:44;;;;;;;34.67;21.23;;;7.20;43.60;;;;;;5034173;28;20239;-50
2023/01/20 12:55:29;;;;;;;30.88;21.23;;;7.20;43.60;;;;;;5034062;28;20166;-50
2023/01/20 12:58:02;;;;;;;34.35;18.17;;;7.20;43.60;;;;;;5034187;28;20190;-49
2023/01/20 13:00:43;;;;;;;32.38;17.85;;;7.20;43.60;;;;;;5034104;28;20220;-51
2023/01/20 13:03:23;;;;;;;36.28;18.58;;;7.20;43.60;;;;;;5034188;28;20495;-49
2023/01/20 13:06:14;;;;;;;32.72;19.42;;;7.20;43.70;;;;;;5034135;28;20170;-50
2023/01/20 13:08:51;;;;;;;29.20;20.30;;;7.20;43.70;;;;;;5034586;28;20192;-50
2023/01/20 13:11:46;;;;;;;35.97;19.88;;;7.20;43.70;;;;;;5033956;28;20200;-50